Rechercher aéroport 
image banner adimage banner ad
image banner ad

SBPA - Salgado Filho

Situé à Porto Alegre, Brazil

ICAO - SBPA, IATA - POA

Données fournies par Airmate  

Information générale

Coordonnées: S29°59'38" W51°10'16"
Élévation : 13 feet MSL.
Variation magnétique : -17° East
Voir autres Aéroports à Rio Grande do Sul

Données opérationnelles

Accessible au public
Heure actuelle UTC:
Heure actuelle locale:
Météo
METAR: SBPA 280700Z 26004KT 9999 BKN014 OVC040 22/22 Q1007
TAF: TAF SBPA 280300Z 2806/2906 18006KT 9999 BKN015 FEW030TCU TN22/2808Z TX28/2817Z TEMPO 2808/2810 5000 SHRA BECMG 2812/2814 12010KT BKN030 BECMG 2816/2818 6000 TSRA BKN030 FEW040CB BECMG 2820/2822 10012KT 8000 SHRA SCT010 BKN020 FEW030TCU BECMG 2902/2904 11006KT 9999 NSW BKN012 RMK PDJ
Voir NOTAMs / SUP AIP / TFR affectant cet aéroport [VIEW]
Fréquences de communication: [VIEW]

Pistes:

Identifiant RWYQFULongueur (ft)Largeur (ft)SurfaceLDA (ft)
1191°7480148ASP
29271°7480148
286496148UNK

Coordonnées de l'aéroport

Adresse: Porto Alegre Brazil

Autres services d'aviation

Écoles de pilotage

Aerosul

Aerosul

Vue satellite de SBPA